createdAt,value
2016-05-25T00:00:35.313Z,1009.61
2016-05-25T00:01:35.316Z,1009.59
2016-05-25T00:02:35.333Z,1009.59
2016-05-25T00:03:35.336Z,1009.53
2016-05-25T00:04:35.339Z,1009.52
2016-05-25T00:05:35.342Z,1009.54
2016-05-25T00:06:35.345Z,1009.54
2016-05-25T00:07:35.347Z,1009.56
2016-05-25T00:08:35.366Z,1009.57
2016-05-25T00:09:35.369Z,1009.57
2016-05-25T00:10:35.371Z,1009.56
2016-05-25T00:11:35.374Z,1009.53
2016-05-25T00:12:35.392Z,1009.56
2016-05-25T00:13:35.379Z,1009.54
2016-05-25T00:14:35.398Z,1009.57
2016-05-25T00:15:35.400Z,1009.49
2016-05-25T00:16:35.622Z,1009.53
2016-05-25T00:17:35.406Z,1009.51
2016-05-25T00:18:35.409Z,1009.48
2016-05-25T00:19:35.426Z,1009.47
2016-05-25T00:20:35.429Z,1009.44
2016-05-25T00:21:35.432Z,1009.48
2016-05-25T00:22:35.434Z,1009.44
2016-05-25T00:23:35.437Z,1009.45
2016-05-25T00:24:35.440Z,1009.41
2016-05-25T00:25:35.459Z,1009.47
2016-05-25T00:26:35.461Z,1009.44
2016-05-25T00:27:35.464Z,1009.47
2016-05-25T00:28:35.467Z,1009.48
2016-05-25T00:29:35.470Z,1009.4
2016-05-25T00:30:35.487Z,1009.42
2016-05-25T00:31:35.490Z,1009.44
2016-05-25T00:32:35.492Z,1009.44
2016-05-25T00:33:35.495Z,1009.38
2016-05-25T00:34:35.498Z,1009.4
2016-05-25T00:35:35.500Z,1009.37
2016-05-25T00:36:35.503Z,1009.33
2016-05-25T00:37:35.521Z,1009.34
2016-05-25T00:38:35.525Z,1009.34
2016-05-25T00:39:35.528Z,1009.33
2016-05-25T00:40:35.530Z,1009.33
2016-05-25T00:41:35.533Z,1009.32
2016-05-25T00:42:35.551Z,1009.32
2016-05-25T00:43:35.554Z,1009.33
2016-05-25T00:44:35.556Z,1009.36
2016-05-25T00:45:35.559Z,1009.36
2016-05-25T00:46:35.577Z,1009.32
2016-05-25T00:47:35.580Z,1009.32
2016-05-25T00:48:35.583Z,1009.36
2016-05-25T00:49:35.585Z,1009.35
2016-05-25T00:50:35.588Z,1009.33
2016-05-25T00:51:35.590Z,1009.31
2016-05-25T00:52:35.593Z,1009.34
2016-05-25T00:53:35.596Z,1009.36
2016-05-25T00:54:35.614Z,1009.39
2016-05-25T00:55:35.618Z,1009.43
2016-05-25T00:56:35.620Z,1009.41
2016-05-25T00:57:35.622Z,1009.39
2016-05-25T00:58:35.625Z,1009.41
2016-05-25T00:59:35.628Z,1009.4
2016-05-25T01:00:35.647Z,1009.39
2016-05-25T01:01:35.664Z,1009.37
2016-05-25T01:02:35.652Z,1009.39
2016-05-25T01:03:35.655Z,1009.38
2016-05-25T01:04:35.657Z,1009.31
2016-05-25T01:05:35.675Z,1009.34
2016-05-25T01:06:35.677Z,1009.31
2016-05-25T01:07:35.680Z,1009.37
2016-05-25T01:08:35.683Z,1009.37
2016-05-25T01:09:35.686Z,1009.4
2016-05-25T01:10:35.705Z,1009.44
2016-05-25T01:11:35.707Z,1009.43
2016-05-25T01:12:35.710Z,1009.39
2016-05-25T01:13:35.712Z,1009.42
2016-05-25T01:14:35.715Z,1009.41
2016-05-25T01:15:35.718Z,1009.36
2016-05-25T01:16:35.735Z,1009.36
2016-05-25T01:17:35.738Z,1009.37
2016-05-25T01:18:35.741Z,1009.37
2016-05-25T01:19:35.744Z,1009.35
2016-05-25T01:20:35.762Z,1009.34
2016-05-25T01:21:35.749Z,1009.32
2016-05-25T01:22:35.768Z,1009.31
2016-05-25T01:23:35.770Z,1009.3
2016-05-25T01:24:35.773Z,1009.32
2016-05-25T01:25:35.776Z,1009.31
2016-05-25T01:26:35.778Z,1009.31
2016-05-25T01:27:35.782Z,1009.32
2016-05-25T01:28:35.800Z,1009.29
2016-05-25T01:29:35.803Z,1009.32
2016-05-25T01:30:35.805Z,1009.31
2016-05-25T01:31:35.808Z,1009.37
2016-05-25T01:32:35.811Z,1009.35
2016-05-25T01:33:35.813Z,1009.33
2016-05-25T01:34:35.831Z,1009.33
2016-05-25T01:35:35.834Z,1009.34
2016-05-25T01:36:35.836Z,1009.35
2016-05-25T01:37:35.839Z,1009.35
2016-05-25T01:38:35.841Z,1009.36
2016-05-25T01:39:35.844Z,1009.34
2016-05-25T01:40:35.864Z,1009.35
2016-05-25T01:41:35.866Z,1009.33
2016-05-25T01:42:35.869Z,1009.33
2016-05-25T01:43:35.871Z,1009.35
2016-05-25T01:44:35.874Z,1009.37
2016-05-25T01:45:35.893Z,1009.34
2016-05-25T01:46:35.895Z,1009.36
2016-05-25T01:47:35.898Z,1009.34
2016-05-25T01:48:35.901Z,1009.35
2016-05-25T01:49:35.904Z,1009.3
2016-05-25T01:50:35.921Z,1009.31
2016-05-25T01:51:35.923Z,1009.26
2016-05-25T01:52:35.927Z,1009.28
2016-05-25T01:53:35.929Z,1009.26
2016-05-25T01:54:35.932Z,1009.25
2016-05-25T01:55:35.934Z,1009.27
2016-05-25T01:56:35.953Z,1009.28
2016-05-25T01:57:35.956Z,1009.22
2016-05-25T01:58:35.958Z,1009.22
2016-05-25T01:59:35.961Z,1009.21
2016-05-25T02:00:35.964Z,1009.23
2016-05-25T02:01:35.982Z,1009.2
2016-05-25T02:02:35.985Z,1009.18
2016-05-25T02:03:35.987Z,1009.19
2016-05-25T02:04:35.990Z,1009.22
2016-05-25T02:05:35.992Z,1009.24
2016-05-25T02:06:36.011Z,1009.22
2016-05-25T02:07:36.014Z,1009.21
2016-05-25T02:08:36.016Z,1009.21
2016-05-25T02:09:36.019Z,1009.23
2016-05-25T02:10:36.022Z,1009.2
2016-05-25T02:11:36.025Z,1009.21
2016-05-25T02:12:36.028Z,1009.21
2016-05-25T02:13:36.030Z,1009.2
2016-05-25T02:14:36.049Z,1009.19
2016-05-25T02:15:36.051Z,1009.19
2016-05-25T02:16:36.054Z,1009.22
2016-05-25T02:17:36.056Z,1009.2
2016-05-25T02:18:36.059Z,1009.21
2016-05-25T02:19:36.077Z,1009.22
2016-05-25T02:20:36.096Z,1009.21
2016-05-25T02:21:36.082Z,1009.24
2016-05-25T02:22:36.085Z,1009.19
2016-05-25T02:23:36.088Z,1009.22
2016-05-25T02:24:36.107Z,1009.22
2016-05-25T02:25:36.109Z,1009.2
2016-05-25T02:26:36.112Z,1009.2
2016-05-25T02:27:36.130Z,1009.15
2016-05-25T02:28:36.117Z,1009.16
2016-05-25T02:29:36.119Z,1009.15
2016-05-25T02:30:36.138Z,1009.14
2016-05-25T02:31:36.141Z,1009.19
2016-05-25T02:32:36.144Z,1009.18
2016-05-25T02:33:36.147Z,1009.16
2016-05-25T02:34:36.150Z,1009.17
2016-05-25T02:35:36.152Z,1009.18
2016-05-25T02:36:36.170Z,1009.18
2016-05-25T02:37:36.172Z,1009.22
2016-05-25T02:38:36.175Z,1009.21
2016-05-25T02:39:36.177Z,1009.17
2016-05-25T02:40:36.181Z,1009.22
2016-05-25T02:41:36.183Z,1009.2
2016-05-25T02:42:36.202Z,1009.18
2016-05-25T02:43:36.205Z,1009.2
2016-05-25T02:44:36.207Z,1009.2
2016-05-25T02:45:36.210Z,1009.18
2016-05-25T02:46:36.213Z,1009.18
2016-05-25T02:47:36.230Z,1009.17
2016-05-25T02:48:36.218Z,1009.17
2016-05-25T02:49:36.235Z,1009.14
2016-05-25T02:50:36.238Z,1009.15
2016-05-25T02:51:36.242Z,1009.13
2016-05-25T02:52:36.243Z,1009.14
2016-05-25T02:53:36.263Z,1009.13
2016-05-25T02:54:36.265Z,1009.15
2016-05-25T02:55:36.268Z,1009.15
2016-05-25T02:56:36.271Z,1009.13
2016-05-25T02:57:36.273Z,1009.14
2016-05-25T02:58:36.276Z,1009.12
2016-05-25T02:59:36.294Z,1009.1
2016-05-25T03:00:36.297Z,1009.1
2016-05-25T03:01:36.300Z,1009.11
2016-05-25T03:02:36.303Z,1009.1
2016-05-25T03:03:36.336Z,1009.07
2016-05-25T03:04:36.308Z,1009.08
2016-05-25T03:05:36.325Z,1009.07
2016-05-25T03:06:36.329Z,1009.07
2016-05-25T03:07:36.331Z,1009.09
2016-05-25T03:08:36.334Z,1009.09
2016-05-25T03:09:36.368Z,1009.14
2016-05-25T03:10:36.339Z,1009.13
2016-05-25T03:11:36.357Z,1009.11
2016-05-25T03:12:36.361Z,1009.11
2016-05-25T03:13:36.363Z,1009.14
2016-05-25T03:14:36.366Z,1009.14
2016-05-25T03:15:36.368Z,1009.17
2016-05-25T03:16:36.465Z,1009.11
2016-05-25T03:17:36.390Z,1009.16
2016-05-25T03:18:36.393Z,1009.1
2016-05-25T03:19:36.395Z,1009.1
2016-05-25T03:20:36.398Z,1009.1
2016-05-25T03:21:36.401Z,1009.06
2016-05-25T03:22:36.404Z,1009.11
2016-05-25T03:23:36.406Z,1009.07
2016-05-25T03:24:36.455Z,1009.07
2016-05-25T03:25:36.427Z,1009.06
2016-05-25T03:26:36.430Z,1009.08
2016-05-25T03:27:36.448Z,1009.06
2016-05-25T03:28:36.451Z,1009.01
2016-05-25T03:29:36.453Z,1009.01
2016-05-25T03:30:36.456Z,1009
2016-05-25T03:31:36.459Z,1008.99
2016-05-25T03:32:36.476Z,1008.98
2016-05-25T03:33:36.464Z,1008.96
2016-05-25T03:34:36.482Z,1009.01
2016-05-25T03:35:36.484Z,1008.94
2016-05-25T03:36:36.487Z,1008.96
2016-05-25T03:37:36.490Z,1008.94
2016-05-25T03:38:36.508Z,1009
2016-05-25T03:39:36.495Z,1008.98
2016-05-25T03:40:36.514Z,1008.97
2016-05-25T03:41:36.516Z,1008.99
2016-05-25T03:42:36.519Z,1009
2016-05-25T03:43:36.522Z,1008.98
2016-05-25T03:44:36.524Z,1009.02
2016-05-25T03:45:36.527Z,1008.98
2016-05-25T03:46:36.546Z,1008.93
2016-05-25T03:47:36.549Z,1008.95
2016-05-25T03:48:36.552Z,1008.96
2016-05-25T03:49:36.554Z,1009.01
2016-05-25T03:50:36.557Z,1008.97
2016-05-25T03:51:36.574Z,1009
2016-05-25T03:52:36.577Z,1009
2016-05-25T03:53:36.580Z,1008.97
2016-05-25T03:54:36.582Z,1008.97
2016-05-25T03:55:36.586Z,1008.94
2016-05-25T03:56:36.588Z,1008.95
2016-05-25T03:57:36.607Z,1008.95
2016-05-25T03:58:36.610Z,1008.95
2016-05-25T03:59:36.613Z,1008.92
2016-05-25T04:00:36.615Z,1008.91
2016-05-25T04:01:36.617Z,1008.86
2016-05-25T04:02:36.621Z,1008.88
2016-05-25T04:03:36.623Z,1008.84
2016-05-25T04:04:36.642Z,1008.79
2016-05-25T04:05:36.645Z,1008.79
2016-05-25T04:06:36.647Z,1008.75
2016-05-25T04:07:36.649Z,1008.75
2016-05-25T04:08:36.653Z,1008.77
2016-05-25T04:09:36.655Z,1008.8
2016-05-25T04:10:36.673Z,1008.76
2016-05-25T04:11:36.675Z,1008.77
2016-05-25T04:12:36.678Z,1008.77
2016-05-25T04:13:36.681Z,1008.75
2016-05-25T04:14:36.684Z,1008.74
2016-05-25T04:15:36.702Z,1008.73
2016-05-25T04:16:36.705Z,1008.67
2016-05-25T04:17:36.707Z,1008.69
2016-05-25T04:18:36.710Z,1008.68
2016-05-25T04:19:36.736Z,1008.66
2016-05-25T04:20:36.763Z,1008.67
2016-05-25T04:21:36.804Z,1008.67
2016-05-25T04:22:36.831Z,1008.67
2016-05-25T04:23:36.857Z,1008.71
2016-05-25T04:24:36.868Z,1008.73
2016-05-25T04:25:36.896Z,1008.72
2016-05-25T04:26:36.891Z,1008.74
2016-05-25T04:27:36.918Z,1008.76
2016-05-25T04:28:36.929Z,1008.71
2016-05-25T04:29:36.935Z,1008.7
2016-05-25T04:30:36.941Z,1008.69
2016-05-25T04:31:36.963Z,1008.67
2016-05-25T04:32:36.952Z,1008.71
2016-05-25T04:33:36.974Z,1008.71
2016-05-25T04:34:36.978Z,1008.7
2016-05-25T04:35:36.981Z,1008.68
2016-05-25T04:36:36.986Z,1008.71
2016-05-25T04:37:36.989Z,1008.73
2016-05-25T04:38:36.994Z,1008.76
2016-05-25T04:39:37.012Z,1008.73
2016-05-25T04:40:37.014Z,1008.72
2016-05-25T04:41:37.018Z,1008.73
2016-05-25T04:42:37.021Z,1008.76
2016-05-25T04:43:37.023Z,1008.75
2016-05-25T04:44:37.027Z,1008.75
2016-05-25T04:45:37.045Z,1008.77
2016-05-25T04:46:37.048Z,1008.73
2016-05-25T04:47:37.051Z,1008.76
2016-05-25T04:48:37.053Z,1008.69
2016-05-25T04:49:37.056Z,1008.68
2016-05-25T04:50:37.059Z,1008.66
2016-05-25T04:51:37.077Z,1008.66
2016-05-25T04:52:37.080Z,1008.67
2016-05-25T04:53:37.082Z,1008.7
2016-05-25T04:54:37.086Z,1008.73
2016-05-25T04:55:37.103Z,1008.79
2016-05-25T04:56:37.090Z,1008.79
2016-05-25T04:57:37.093Z,1008.82
2016-05-25T04:58:37.111Z,1008.84
2016-05-25T04:59:37.114Z,1008.82
2016-05-25T05:00:37.117Z,1008.86
2016-05-25T05:01:37.135Z,1008.89
2016-05-25T05:02:37.138Z,1008.92
2016-05-25T05:03:37.141Z,1008.91
2016-05-25T05:04:37.143Z,1008.89
2016-05-25T05:05:37.161Z,1008.87
2016-05-25T05:06:37.148Z,1008.88
2016-05-25T05:07:37.166Z,1008.89
2016-05-25T05:08:37.169Z,1008.87
2016-05-25T05:09:37.171Z,1008.91
2016-05-25T05:10:37.174Z,1008.93
2016-05-25T05:11:37.177Z,1008.95
2016-05-25T05:12:37.180Z,1008.93
2016-05-25T05:13:37.182Z,1008.96
2016-05-25T05:14:37.217Z,1008.93
2016-05-25T05:15:37.204Z,1008.97
2016-05-25T05:16:37.207Z,1008.95
2016-05-25T05:17:37.209Z,1008.94
2016-05-25T05:18:37.228Z,1008.95
2016-05-25T05:19:37.214Z,1008.94
2016-05-25T05:20:37.234Z,1008.95
2016-05-25T05:21:37.236Z,1008.96
2016-05-25T05:22:37.239Z,1009.01
2016-05-25T05:23:37.256Z,1009.01
2016-05-25T05:24:37.244Z,1009.01
2016-05-25T05:25:37.247Z,1009
2016-05-25T05:26:37.265Z,1009.02
2016-05-25T05:27:37.267Z,1008.98
2016-05-25T05:28:37.270Z,1009.04
2016-05-25T05:29:37.272Z,1009.04
2016-05-25T05:30:37.275Z,1009.04
2016-05-25T05:31:37.294Z,1009.03
2016-05-25T05:32:37.297Z,1009.07
2016-05-25T05:33:37.299Z,1009.05
2016-05-25T05:34:37.302Z,1009.03
2016-05-25T05:35:37.305Z,1009.1
2016-05-25T05:36:37.324Z,1009.08
2016-05-25T05:37:37.326Z,1009.09
2016-05-25T05:38:37.329Z,1009.11
2016-05-25T05:39:37.331Z,1009.09
2016-05-25T05:40:37.334Z,1009.12
2016-05-25T05:41:37.352Z,1009.14
2016-05-25T05:42:37.354Z,1009.15
2016-05-25T05:43:37.357Z,1009.09
2016-05-25T05:44:37.359Z,1009.1
2016-05-25T05:45:37.363Z,1009.11
2016-05-25T05:46:38.021Z,1009.13
2016-05-25T05:47:37.368Z,1009.14
2016-05-25T05:48:37.371Z,1009.17
2016-05-25T05:49:37.389Z,1009.15
2016-05-25T05:50:37.392Z,1009.16
2016-05-25T05:51:39.473Z,1009.15
2016-05-25T05:52:37.397Z,1009.13
2016-05-25T05:53:37.400Z,1009.11
2016-05-25T05:54:37.417Z,1009.09
2016-05-25T05:55:37.421Z,1009.12
2016-05-25T05:56:37.423Z,1009.11
2016-05-25T05:57:37.426Z,1009.12
2016-05-25T05:58:37.429Z,1009.12
2016-05-25T05:59:37.431Z,1009.13
2016-05-25T06:00:37.450Z,1009.1
2016-05-25T06:01:37.452Z,1009.1
2016-05-25T06:02:37.455Z,1009.11
2016-05-25T06:03:37.458Z,1009.1
2016-05-25T06:04:37.460Z,1009.1
2016-05-25T06:05:37.463Z,1009.11
2016-05-25T06:06:38.700Z,1009.11
2016-05-25T06:07:37.484Z,1009.07
2016-05-25T06:08:37.488Z,1009.06
2016-05-25T06:09:37.505Z,1009.06
2016-05-25T06:10:37.493Z,1009.1
2016-05-25T06:11:37.511Z,1009.1
2016-05-25T06:12:37.513Z,1009.16
2016-05-25T06:13:37.516Z,1009.16
2016-05-25T06:14:37.518Z,1009.23
2016-05-25T06:15:37.521Z,1009.24
2016-05-25T06:16:37.524Z,1009.2
2016-05-25T06:17:37.542Z,1009.25
2016-05-25T06:18:37.530Z,1009.23
2016-05-25T06:19:37.548Z,1009.22
2016-05-25T06:20:37.550Z,1009.22
2016-05-25T06:21:37.554Z,1009.25
2016-05-25T06:22:37.556Z,1009.28
2016-05-25T06:23:37.559Z,1009.25
2016-05-25T06:24:37.578Z,1009.32
2016-05-25T06:25:37.580Z,1009.32
2016-05-25T06:26:37.583Z,1009.27
2016-05-25T06:27:37.585Z,1009.28
2016-05-25T06:28:37.588Z,1009.28
2016-05-25T06:29:37.590Z,1009.27
2016-05-25T06:30:37.608Z,1009.27
2016-05-25T06:31:37.611Z,1009.32
2016-05-25T06:32:37.614Z,1009.31
2016-05-25T06:33:37.617Z,1009.32
2016-05-25T06:34:37.620Z,1009.31
2016-05-25T06:35:37.638Z,1009.31
2016-05-25T06:36:37.641Z,1009.35
2016-05-25T06:37:37.644Z,1009.33
2016-05-25T06:38:37.646Z,1009.33
2016-05-25T06:39:37.649Z,1009.32
2016-05-25T06:40:37.651Z,1009.31
2016-05-25T06:41:37.670Z,1009.31
2016-05-25T06:42:37.672Z,1009.32
2016-05-25T06:43:40.441Z,1009.35
2016-05-25T06:44:37.677Z,1009.29
2016-05-25T06:45:37.680Z,1009.37
2016-05-25T06:46:38.182Z,1009.33
2016-05-25T06:47:37.701Z,1009.34
2016-05-25T06:48:37.704Z,1009.33
2016-05-25T06:49:37.706Z,1009.32
2016-05-25T06:50:37.710Z,1009.3
2016-05-25T06:51:37.712Z,1009.3
2016-05-25T06:52:37.714Z,1009.28
2016-05-25T06:53:37.734Z,1009.3
2016-05-25T06:54:37.736Z,1009.29
2016-05-25T06:55:37.739Z,1009.32
2016-05-25T06:56:37.742Z,1009.34
2016-05-25T06:57:37.759Z,1009.32
2016-05-25T06:58:37.747Z,1009.34
2016-05-25T06:59:37.764Z,1009.35
2016-05-25T07:00:37.767Z,1009.36
2016-05-25T07:01:37.802Z,1009.37
2016-05-25T07:02:37.773Z,1009.33
2016-05-25T07:03:37.791Z,1009.32
2016-05-25T07:04:37.778Z,1009.34
2016-05-25T07:05:37.797Z,1009.32
2016-05-25T07:06:37.799Z,1009.36
2016-05-25T07:07:37.802Z,1009.37
2016-05-25T07:08:37.805Z,1009.36
2016-05-25T07:09:37.807Z,1009.41
2016-05-25T07:10:37.826Z,1009.39
2016-05-25T07:11:37.829Z,1009.36
2016-05-25T07:12:37.831Z,1009.39
2016-05-25T07:13:37.834Z,1009.39
2016-05-25T07:14:37.837Z,1009.39
2016-05-25T07:15:37.854Z,1009.4
2016-05-25T07:16:37.857Z,1009.41
2016-05-25T07:17:37.860Z,1009.39
2016-05-25T07:18:37.863Z,1009.41
2016-05-25T07:19:37.865Z,1009.4
2016-05-25T07:20:37.868Z,1009.38
2016-05-25T07:21:37.871Z,1009.41
2016-05-25T07:22:37.890Z,1009.4
2016-05-25T07:23:37.892Z,1009.42
2016-05-25T07:24:37.895Z,1009.39
2016-05-25T07:25:37.897Z,1009.43
2016-05-25T07:26:37.900Z,1009.44
2016-05-25T07:27:37.918Z,1009.43
2016-05-25T07:28:37.920Z,1009.45
2016-05-25T07:29:37.923Z,1009.43
2016-05-25T07:30:37.926Z,1009.51
2016-05-25T07:31:37.929Z,1009.43
2016-05-25T07:32:37.931Z,1009.44
2016-05-25T07:33:37.950Z,1009.44
2016-05-25T07:34:37.953Z,1009.43
2016-05-25T07:35:37.955Z,1009.44
2016-05-25T07:36:37.959Z,1009.44
2016-05-25T07:37:37.977Z,1009.49
2016-05-25T07:38:38.933Z,1009.49
2016-05-25T07:39:37.982Z,1009.49
2016-05-25T07:40:37.985Z,1009.53
2016-05-25T07:41:37.987Z,1009.56
2016-05-25T07:42:38.005Z,1009.52
2016-05-25T07:43:37.993Z,1009.5
2016-05-25T07:44:37.996Z,1009.48
2016-05-25T07:45:38.013Z,1009.48
2016-05-25T07:46:38.016Z,1009.44
2016-05-25T07:47:38.019Z,1009.49
2016-05-25T07:48:38.021Z,1009.46
2016-05-25T07:49:38.025Z,1009.49
2016-05-25T07:50:38.027Z,1009.46
2016-05-25T07:51:38.046Z,1009.48
2016-05-25T07:52:38.048Z,1009.51
2016-05-25T07:53:38.051Z,1009.52
2016-05-25T07:54:38.054Z,1009.54
2016-05-25T07:55:38.057Z,1009.58
2016-05-25T07:56:38.075Z,1009.55
2016-05-25T07:57:38.077Z,1009.52
2016-05-25T07:58:40.159Z,1009.53
2016-05-25T07:59:38.083Z,1009.54
2016-05-25T08:00:38.085Z,1009.5
2016-05-25T08:01:38.103Z,1009.54
2016-05-25T08:02:38.106Z,1009.53
2016-05-25T08:03:39.359Z,1009.54
2016-05-25T08:04:38.112Z,1009.53
2016-05-25T08:05:38.114Z,1009.56
2016-05-25T08:06:38.117Z,1009.54
2016-05-25T08:07:38.136Z,1009.57
2016-05-25T08:08:38.138Z,1009.56
2016-05-25T08:09:38.141Z,1009.58
2016-05-25T08:10:38.144Z,1009.57
2016-05-25T08:11:38.147Z,1009.57
2016-05-25T08:12:38.164Z,1009.57
2016-05-25T08:13:38.166Z,1009.56
2016-05-25T08:14:38.169Z,1009.57
2016-05-25T08:15:38.172Z,1009.55
2016-05-25T08:16:38.175Z,1009.59
2016-05-25T08:17:38.178Z,1009.59
2016-05-25T08:18:38.180Z,1009.58
2016-05-25T08:19:38.199Z,1009.56
2016-05-25T08:20:38.202Z,1009.56
2016-05-25T08:21:38.204Z,1009.52
2016-05-25T08:22:38.207Z,1009.53
2016-05-25T08:23:38.210Z,1009.53
2016-05-25T08:24:38.228Z,1009.56
2016-05-25T08:25:38.231Z,1009.49
2016-05-25T08:26:38.233Z,1009.47
2016-05-25T08:27:38.236Z,1009.47
2016-05-25T08:28:38.239Z,1009.47
2016-05-25T08:29:38.257Z,1009.46
2016-05-25T08:30:38.259Z,1009.48
2016-05-25T08:31:38.262Z,1009.5
2016-05-25T08:32:38.265Z,1009.49
2016-05-25T08:33:38.268Z,1009.48
2016-05-25T08:34:38.270Z,1009.48
2016-05-25T08:35:38.289Z,1009.45
2016-05-25T08:36:38.291Z,1009.46
2016-05-25T08:37:38.295Z,1009.44
2016-05-25T08:38:38.297Z,1009.41
2016-05-25T08:39:38.300Z,1009.45
2016-05-25T08:40:38.318Z,1009.44
2016-05-25T08:41:38.321Z,1009.43
2016-05-25T08:42:38.324Z,1009.45
2016-05-25T08:43:38.326Z,1009.41
2016-05-25T08:44:38.329Z,1009.43
2016-05-25T08:45:38.332Z,1009.44
2016-05-25T08:46:38.365Z,1009.41
2016-05-25T08:47:38.352Z,1009.43
2016-05-25T08:48:38.355Z,1009.43
2016-05-25T08:49:38.357Z,1009.4
2016-05-25T08:50:38.376Z,1009.37
2016-05-25T08:51:38.379Z,1009.39
2016-05-25T08:52:38.382Z,1009.37
2016-05-25T08:53:38.384Z,1009.39
2016-05-25T08:54:38.387Z,1009.4
2016-05-25T08:55:38.390Z,1009.43
2016-05-25T08:56:38.407Z,1009.4
2016-05-25T08:57:38.410Z,1009.41
2016-05-25T08:58:38.835Z,1009.42
2016-05-25T08:59:38.432Z,1009.41
2016-05-25T09:00:38.418Z,1009.41
2016-05-25T09:01:38.421Z,1009.41
2016-05-25T09:02:38.440Z,1009.41
2016-05-25T09:03:39.176Z,1009.43
2016-05-25T09:04:38.444Z,1009.4
2016-05-25T09:05:38.448Z,1009.4
2016-05-25T09:06:38.450Z,1009.39
2016-05-25T09:07:38.469Z,1009.4
2016-05-25T09:08:38.472Z,1009.41
2016-05-25T09:09:38.474Z,1009.43
2016-05-25T09:10:38.477Z,1009.42
2016-05-25T09:11:38.495Z,1009.43
2016-05-25T09:12:38.498Z,1009.42
2016-05-25T09:13:38.500Z,1009.39
2016-05-25T09:14:38.503Z,1009.35
2016-05-25T09:15:38.522Z,1009.41
2016-05-25T09:16:38.509Z,1009.42
2016-05-25T09:17:38.526Z,1009.42
2016-05-25T09:18:38.530Z,1009.44
2016-05-25T09:19:38.532Z,1009.43
2016-05-25T09:20:38.535Z,1009.4
2016-05-25T09:21:38.538Z,1009.38
2016-05-25T09:22:38.557Z,1009.39
2016-05-25T09:23:38.559Z,1009.41
2016-05-25T09:24:38.562Z,1009.4
2016-05-25T09:25:38.564Z,1009.39
2016-05-25T09:26:38.567Z,1009.38
2016-05-25T09:27:38.584Z,1009.36
2016-05-25T09:28:38.587Z,1009.34
2016-05-25T09:29:38.590Z,1009.34
2016-05-25T09:30:38.593Z,1009.34
2016-05-25T09:31:38.596Z,1009.33
2016-05-25T09:32:38.598Z,1009.33
2016-05-25T09:33:38.617Z,1009.33
2016-05-25T09:34:38.620Z,1009.38
2016-05-25T09:35:38.622Z,1009.37
2016-05-25T09:36:38.625Z,1009.38
2016-05-25T09:37:38.627Z,1009.36
2016-05-25T09:38:38.646Z,1009.34
2016-05-25T09:39:38.648Z,1009.39
2016-05-25T09:40:38.650Z,1009.37
2016-05-25T09:41:38.654Z,1009.35
2016-05-25T09:42:38.657Z,1009.37
2016-05-25T09:43:38.675Z,1009.35
2016-05-25T09:44:38.677Z,1009.35
2016-05-25T09:45:38.680Z,1009.32
2016-05-25T09:46:38.683Z,1009.33
2016-05-25T09:47:38.686Z,1009.33
2016-05-25T09:48:38.704Z,1009.32
2016-05-25T09:49:38.707Z,1009.34
2016-05-25T09:50:38.710Z,1009.32
2016-05-25T09:51:38.712Z,1009.38
2016-05-25T09:52:38.715Z,1009.37
2016-05-25T09:53:38.733Z,1009.35
2016-05-25T09:54:38.735Z,1009.33
2016-05-25T09:55:38.738Z,1009.31
2016-05-25T09:56:38.740Z,1009.34
2016-05-25T09:57:38.744Z,1009.4
2016-05-25T09:58:38.762Z,1009.39
2016-05-25T09:59:38.764Z,1009.38
2016-05-25T10:00:38.767Z,1009.41
2016-05-25T10:01:38.864Z,1009.44
2016-05-25T10:02:38.773Z,1009.44
2016-05-25T10:03:38.791Z,1009.39
2016-05-25T10:04:38.794Z,1009.39
2016-05-25T10:05:38.797Z,1009.35
2016-05-25T10:06:38.799Z,1009.36
2016-05-25T10:07:38.802Z,1009.32
2016-05-25T10:08:38.820Z,1009.35
2016-05-25T10:09:38.823Z,1009.32
2016-05-25T10:10:38.825Z,1009.29
2016-05-25T10:11:38.828Z,1009.28
2016-05-25T10:12:38.831Z,1009.32
2016-05-25T10:13:38.849Z,1009.28
2016-05-25T10:14:38.852Z,1009.25
2016-05-25T10:15:38.855Z,1009.3
2016-05-25T10:16:38.858Z,1009.29
2016-05-25T10:17:38.892Z,1009.33
2016-05-25T10:18:38.878Z,1009.31
2016-05-25T10:19:38.880Z,1009.28
2016-05-25T10:20:38.899Z,1009.31
2016-05-25T10:21:38.886Z,1009.31
2016-05-25T10:22:38.905Z,1009.28
2016-05-25T10:23:38.907Z,1009.3
2016-05-25T10:24:38.927Z,1009.32
2016-05-25T10:25:38.913Z,1009.26
2016-05-25T10:26:38.931Z,1009.34
2016-05-25T10:27:38.935Z,1009.3
2016-05-25T10:28:38.937Z,1009.27
2016-05-25T10:29:38.939Z,1009.3
2016-05-25T10:30:38.942Z,1009.27
2016-05-25T10:31:38.945Z,1009.28
2016-05-25T10:32:38.979Z,1009.33
2016-05-25T10:33:38.965Z,1009.31
2016-05-25T10:34:38.968Z,1009.28
2016-05-25T10:35:38.987Z,1009.28
2016-05-25T10:36:38.989Z,1009.25
2016-05-25T10:37:38.992Z,1009.26
2016-05-25T10:38:38.995Z,1009.28
2016-05-25T10:39:38.997Z,1009.24
2016-05-25T10:40:39.016Z,1009.22
2016-05-25T10:41:39.019Z,1009.18
2016-05-25T10:42:39.022Z,1009.23
2016-05-25T10:43:39.024Z,1009.21
2016-05-25T10:44:39.026Z,1009.18
2016-05-25T10:45:39.029Z,1009.22
2016-05-25T10:46:39.047Z,1009.2
2016-05-25T10:47:39.050Z,1009.22
2016-05-25T10:48:39.053Z,1009.2
2016-05-25T10:49:39.055Z,1009.24
2016-05-25T10:50:39.074Z,1009.24
2016-05-25T10:51:39.061Z,1009.16
2016-05-25T10:52:39.080Z,1009.14
2016-05-25T10:53:39.082Z,1009.17
2016-05-25T10:54:39.085Z,1009.14
2016-05-25T10:55:39.088Z,1009.1
2016-05-25T10:56:39.105Z,1009.12
2016-05-25T10:57:39.108Z,1009.08
2016-05-25T10:58:39.110Z,1009.15
2016-05-25T10:59:39.113Z,1009.16
2016-05-25T11:00:39.132Z,1009.16
2016-05-25T11:01:39.134Z,1009.15
2016-05-25T11:02:39.138Z,1009.16
2016-05-25T11:03:39.140Z,1009.15
2016-05-25T11:04:39.159Z,1009.17
2016-05-25T11:05:39.162Z,1009.17
2016-05-25T11:06:39.164Z,1009.13
2016-05-25T11:07:39.167Z,1009.14
2016-05-25T11:08:39.169Z,1009.13
2016-05-25T11:09:39.187Z,1009.15
2016-05-25T11:10:39.190Z,1009.22
2016-05-25T11:11:39.193Z,1009.2
2016-05-25T11:12:39.195Z,1009.19
2016-05-25T11:13:39.197Z,1009.25
2016-05-25T11:14:39.216Z,1009.18
2016-05-25T11:15:39.235Z,1009.12
2016-05-25T11:16:39.238Z,1009.17
2016-05-25T11:17:39.225Z,1009.1
2016-05-25T11:18:39.228Z,1009.08
2016-05-25T11:19:39.246Z,1009.09
2016-05-25T11:20:39.248Z,1009.1
2016-05-25T11:21:39.252Z,1009.11
2016-05-25T11:22:39.254Z,1009.11
2016-05-25T11:23:39.272Z,1009.13
2016-05-25T11:24:39.305Z,1009.11
2016-05-25T11:25:39.278Z,1009.11
2016-05-25T11:26:39.280Z,1009.12
2016-05-25T11:27:39.298Z,1009.12
2016-05-25T11:28:39.301Z,1009.13
2016-05-25T11:29:39.304Z,1009.13
2016-05-25T11:30:39.306Z,1009.15
2016-05-25T11:31:39.324Z,1009.15
2016-05-25T11:32:39.327Z,1009.12
2016-05-25T11:33:39.330Z,1009.11
2016-05-25T11:34:39.333Z,1009.07
2016-05-25T11:35:39.335Z,1009.08
2016-05-25T11:36:39.337Z,1009.06
2016-05-25T11:37:39.357Z,1009.06
2016-05-25T11:38:39.359Z,1009.09
2016-05-25T11:39:39.362Z,1009.07
2016-05-25T11:40:39.365Z,1009.1
2016-05-25T11:41:39.383Z,1009.03
2016-05-25T11:42:39.386Z,1009.07
2016-05-25T11:43:39.388Z,1009.08
2016-05-25T11:44:39.391Z,1009.05
2016-05-25T11:45:39.409Z,1009.04
2016-05-25T11:46:39.412Z,1009.04
2016-05-25T11:47:39.415Z,1009.06
2016-05-25T11:48:39.417Z,1009.04
2016-05-25T11:49:39.420Z,1009.02
2016-05-25T11:50:39.422Z,1008.97
2016-05-25T11:51:39.441Z,1008.94
2016-05-25T11:52:39.444Z,1008.96
2016-05-25T11:53:39.446Z,1008.97
2016-05-25T11:54:39.449Z,1008.98
2016-05-25T11:55:39.468Z,1009.01
2016-05-25T11:56:39.470Z,1009.04
2016-05-25T11:57:39.473Z,1009.05
2016-05-25T11:58:39.476Z,1009.04
2016-05-25T11:59:39.494Z,1008.99
2016-05-25T12:00:39.496Z,1008.96
2016-05-25T12:01:39.499Z,1008.97
2016-05-25T12:02:39.502Z,1009.01
2016-05-25T12:03:39.505Z,1008.97
2016-05-25T12:04:39.523Z,1008.94
2016-05-25T12:05:39.525Z,1008.97
2016-05-25T12:06:39.543Z,1008.88
2016-05-25T12:07:39.546Z,1008.89
2016-05-25T12:08:39.534Z,1008.84